Time;durP1;ratioP1;P1;durP2;ratioP2;P2;SDS_P1;SDS_P2;PMS_P1;PMS_P2;Temp;Humidity;BMP_temperature;BMP_pressure;BME280_temperature;BME280_humidity;BME280_pressure;Samples;Min_cycle;Max_cycle;Signal;HPM_P1;HPM_P2
2023/10/06 00:00:35;;;;;;;5.85;2.33;;;;;;;16.22;62.05;102468.16;5145771;27;20077;-67
2023/10/06 00:03:05;;;;;;;11.38;3.08;;;;;;;16.22;62.11;102468.16;5146607;27;20074;-67
2023/10/06 00:05:34;;;;;;;7.82;2.88;;;;;;;16.21;62.08;102466.50;5144903;27;20161;-67
2023/10/06 00:08:06;;;;;;;6.05;2.88;;;;;;;16.21;62.10;102465.66;5145465;27;20038;-67
2023/10/06 00:10:35;;;;;;;6.65;2.35;;;;;;;16.19;62.10;102459.63;5145756;27;20082;-67
2023/10/06 00:13:06;;;;;;;5.18;2.30;;;;;;;16.19;61.97;102468.59;5145274;27;20480;-67
2023/10/06 00:15:38;;;;;;;5.60;2.50;;;;;;;16.17;62.18;102470.69;5146534;27;20332;-67
2023/10/06 00:18:09;;;;;;;6.55;2.60;;;;;;;16.17;62.24;102470.69;5148596;27;20059;-67
2023/10/06 00:20:45;;;;;;;6.28;2.53;;;;;;;16.16;61.94;102470.91;5144712;27;20058;-67
2023/10/06 00:23:14;;;;;;;5.70;2.65;;;;;;;16.14;62.27;102467.59;5146674;27;20039;-67
2023/10/06 00:25:43;;;;;;;6.80;2.50;;;;;;;16.13;62.33;102474.06;5146003;27;20050;-67
2023/10/06 00:28:19;;;;;;;7.15;2.30;;;;;;;16.14;62.05;102473.03;5146101;27;20043;-67
2023/10/06 00:30:55;;;;;;;6.47;2.45;;;;;;;16.13;62.11;102472.19;5143280;27;20043;-67
2023/10/06 00:33:26;;;;;;;4.00;2.17;;;;;;;16.13;62.11;102466.75;5147266;27;20054;-67
2023/10/06 00:35:54;;;;;;;8.00;2.92;;;;;;;16.12;61.99;102467.81;5143826;27;20067;-67
2023/10/06 00:38:24;;;;;;;5.50;2.40;;;;;;;16.10;62.11;102478.06;5145857;27;20043;-67
2023/10/06 00:40:52;;;;;;;5.78;2.95;;;;;;;16.10;62.18;102472.63;5145895;27;20039;-67
2023/10/06 00:43:34;;;;;;;4.85;2.75;;;;;;;16.09;62.06;102465.53;5148633;27;20052;-67
2023/10/06 00:46:06;;;;;;;8.23;2.35;;;;;;;16.08;62.14;102463.03;5145721;27;20049;-67
2023/10/06 00:48:38;;;;;;;7.47;2.80;;;;;;;16.07;62.26;102461.38;5144448;27;20055;-67
2023/10/06 00:51:12;;;;;;;5.45;2.92;;;;;;;16.07;62.19;102461.38;5141579;27;20054;-67
2023/10/06 00:53:43;;;;;;;8.07;2.67;;;;;;;16.05;62.21;102458.06;5144086;27;20129;-67
2023/10/06 00:56:14;;;;;;;9.82;2.58;;;;;;;15.93;62.23;102437.06;5144926;27;20054;-68
2023/10/06 00:58:43;;;;;;;7.28;2.72;;;;;;;16.05;62.12;102460.78;5145842;27;20120;-67
2023/10/06 01:01:13;;;;;;;7.68;2.70;;;;;;;16.03;62.10;102455.56;5142718;27;20107;-65
2023/10/06 01:03:42;;;;;;;6.15;3.03;;;;;;;16.02;62.24;102458.50;5146156;27;20043;-67
2023/10/06 01:06:14;;;;;;;6.30;2.72;;;;;;;16.02;62.16;102445.75;5146788;27;20055;-67
2023/10/06 01:08:52;;;;;;;6.75;3.20;;;;;;;16.00;62.14;102442.44;5141974;27;20047;-67
2023/10/06 01:11:26;;;;;;;6.70;2.85;;;;;;;15.99;62.12;102443.50;5144650;27;20047;-66
2023/10/06 01:13:56;;;;;;;9.60;3.03;;;;;;;15.97;62.21;102428.50;5143684;27;20448;-67
2023/10/06 01:16:29;;;;;;;9.48;2.63;;;;;;;15.99;62.17;102431.81;5145185;27;20039;-66
2023/10/06 01:19:14;;;;;;;7.85;2.60;;;;;;;15.98;62.28;102424.72;5142858;27;20043;-67
2023/10/06 01:21:46;;;;;;;6.65;2.50;;;;;;;15.96;62.31;102422.22;5140274;27;20043;-67
2023/10/06 01:24:24;;;;;;;6.63;2.78;;;;;;;15.95;62.22;102423.28;5146197;27;20062;-65
2023/10/06 01:26:53;;;;;;;7.38;3.05;;;;;;;15.93;62.25;102417.25;5143365;27;20059;-66
2023/10/06 01:29:26;;;;;;;5.88;2.70;;;;;;;15.94;62.47;102427.03;5144511;27;20374;-67
2023/10/06 01:31:54;;;;;;;12.77;3.03;;;;;;;15.94;62.17;102427.88;5144184;27;20043;-66
2023/10/06 01:34:21;;;;;;;6.85;2.70;;;;;;;15.93;62.27;102422.66;5144435;27;20154;-66
2023/10/06 01:36:52;;;;;;;7.43;2.72;;;;;;;15.93;62.20;102422.66;5139936;27;20115;-66
2023/10/06 01:39:25;;;;;;;5.85;2.80;;;;;;;15.89;62.36;102418.72;5144352;27;20051;-66
2023/10/06 01:41:52;;;;;;;6.07;2.33;;;;;;;15.91;62.26;102430.19;5144888;27;20047;-66
2023/10/06 01:44:22;;;;;;;7.63;3.33;;;;;;;15.90;62.28;102429.38;5143738;27;20112;-67
2023/10/06 01:46:53;;;;;;;4.55;2.22;;;;;;;15.90;62.26;102417.69;5144116;27;20472;-66
2023/10/06 01:49:22;;;;;;;6.43;2.40;;;;;;;15.91;62.25;102419.34;5144866;27;20073;-66
2023/10/06 01:51:51;;;;;;;6.68;2.67;;;;;;;15.90;62.21;102418.50;5141984;27;20372;-66
2023/10/06 01:54:37;;;;;;;5.35;2.80;;;;;;;15.76;62.36;102395.25;5142335;27;20134;-66
2023/10/06 01:57:06;;;;;;;6.25;2.88;;;;;;;15.86;62.30;102405.63;5148168;27;20050;-66
2023/10/06 01:59:34;;;;;;;6.47;2.40;;;;;;;15.88;62.14;102407.06;5146146;27;20062;-66
2023/10/06 02:02:07;;;;;;;4.72;2.35;;;;;;;15.88;62.04;102408.94;5144958;27;20035;-66
2023/10/06 02:04:39;;;;;;;7.53;3.10;;;;;;;15.88;62.24;102408.94;5145777;27;20142;-66
2023/10/06 02:07:10;;;;;;;9.85;3.03;;;;;;;15.86;62.23;102403.75;5143946;27;20342;-66
2023/10/06 02:09:40;;;;;;;10.07;2.55;;;;;;;15.85;62.19;102398.53;5145259;27;20046;-65
2023/10/06 02:12:08;;;;;;;8.35;3.63;;;;;;;15.82;62.30;102397.09;5141937;27;20039;-67
2023/10/06 02:14:36;;;;;;;7.20;3.40;;;;;;;15.82;62.28;102401.69;5141731;27;20110;-66
2023/10/06 02:17:05;;;;;;;7.55;2.53;;;;;;;15.82;62.28;102401.69;5142704;27;20050;-66
2023/10/06 02:19:34;;;;;;;7.05;2.65;;;;;;;15.82;62.26;102413.34;5142591;27;20047;-67
2023/10/06 02:22:06;;;;;;;6.80;2.97;;;;;;;15.81;62.19;102411.69;5141466;27;20106;-66
2023/10/06 02:24:34;;;;;;;6.70;2.88;;;;;;;15.81;62.13;102416.28;5142805;27;20051;-66
2023/10/06 02:27:03;;;;;;;6.32;2.83;;;;;;;15.79;62.18;102411.09;5141962;27;20055;-66
2023/10/06 02:29:31;;;;;;;9.20;3.63;;;;;;;15.78;62.27;102409.41;5145634;27;20054;-66
2023/10/06 02:32:06;;;;;;;4.00;2.55;;;;;;;15.77;62.24;102409.63;5147501;27;20099;-66
2023/10/06 02:34:36;;;;;;;7.28;2.75;;;;;;;15.72;62.20;102398.63;5145221;27;20075;-67
2023/10/06 02:37:06;;;;;;;7.55;2.95;;;;;;;15.75;62.36;102404.44;5146895;27;20050;-66
2023/10/06 02:39:37;;;;;;;7.25;2.63;;;;;;;15.75;62.31;102395.47;5145009;27;20104;-66
2023/10/06 02:42:09;;;;;;;5.50;3.08;;;;;;;15.74;62.14;102407.38;5143374;27;20148;-65
2023/10/06 02:44:40;;;;;;;7.72;3.30;;;;;;;15.72;62.33;102404.88;5142417;27;20137;-65
2023/10/06 02:47:09;;;;;;;5.38;2.55;;;;;;;15.72;62.22;102410.28;5143533;27;20071;-66
2023/10/06 02:49:40;;;;;;;6.88;2.95;;;;;;;15.71;62.27;102405.91;5143326;27;20067;-66
2023/10/06 02:52:20;;;;;;;6.85;3.33;;;;;;;15.71;62.18;102400.50;5139828;27;20043;-66
2023/10/06 02:54:58;;;;;;;4.97;2.75;;;;;;;15.71;62.10;102395.06;5138768;27;20130;-66
2023/10/06 02:57:28;;;;;;;6.80;2.38;;;;;;;15.69;62.31;102393.63;5140911;27;20047;-66
2023/10/06 03:00:17;;;;;;;7.95;2.80;;;;;;;15.66;62.19;102391.34;5143372;27;20452;-66
2023/10/06 03:02:45;;;;;;;5.43;2.50;;;;;;;15.67;62.14;102401.16;5142716;27;20039;-67
2023/10/06 03:05:14;;;;;;;7.70;2.78;;;;;;;15.66;62.14;102394.91;5142050;27;20053;-66
2023/10/06 03:07:45;;;;;;;7.80;2.58;;;;;;;15.65;62.34;102401.38;5141321;27;20073;-66
2023/10/06 03:10:17;;;;;;;5.60;2.53;;;;;;;15.65;62.35;102411.38;5145843;27;20039;-67
2023/10/06 03:12:47;;;;;;;4.68;2.42;;;;;;;15.63;62.11;102396.16;5142886;27;20104;-67
2023/10/06 03:15:28;;;;;;;8.05;3.30;;;;;;;15.63;62.25;102393.44;5141742;27;20043;-66
2023/10/06 03:17:58;;;;;;;5.22;2.90;;;;;;;15.62;62.09;102389.09;5142318;27;20049;-67
2023/10/06 03:20:29;;;;;;;9.88;3.10;;;;;;;15.62;62.18;102372.00;5143414;27;20452;-67
2023/10/06 03:22:57;;;;;;;9.77;2.80;;;;;;;15.61;62.16;102382.00;5142242;27;20055;-67
2023/10/06 03:25:28;;;;;;;9.90;3.60;;;;;;;15.62;62.22;102382.84;5139256;27;20076;-67
2023/10/06 03:27:57;;;;;;;5.00;2.33;;;;;;;15.60;62.22;102380.34;5140038;27;20485;-67
2023/10/06 03:30:28;;;;;;;5.10;2.80;;;;;;;15.60;62.22;102382.25;5142321;27;20051;-67
2023/10/06 03:32:57;;;;;;;8.82;2.90;;;;;;;15.58;62.04;102379.75;5145617;27;20043;-67
2023/10/06 03:35:36;;;;;;;5.10;2.72;;;;;;;15.58;62.17;102381.63;5143797;27;20480;-67
2023/10/06 03:38:27;;;;;;;5.25;2.80;;;;;;;15.57;62.17;102380.81;5141801;27;20057;-67
2023/10/06 03:41:09;;;;;;;7.30;2.53;;;;;;;15.58;62.10;102390.59;5141543;27;20055;-67
2023/10/06 03:43:40;;;;;;;8.57;2.53;;;;;;;15.56;61.97;102398.09;5141097;27;20039;-67
2023/10/06 03:46:12;;;;;;;9.27;2.65;;;;;;;15.56;62.16;102402.66;5143296;27;20055;-67
2023/10/06 03:48:40;;;;;;;7.55;2.70;;;;;;;15.55;62.08;102391.00;5140166;27;20081;-67
2023/10/06 03:51:07;;;;;;;5.35;2.40;;;;;;;15.54;62.07;102386.63;5142834;27;20039;-67
2023/10/06 03:53:35;;;;;;;6.85;3.05;;;;;;;15.55;61.92;102387.47;5143432;27;20043;-67
2023/10/06 03:56:03;;;;;;;6.30;2.67;;;;;;;15.53;61.95;102384.97;5144506;27;20047;-67
2023/10/06 03:58:32;;;;;;;9.40;2.83;;;;;;;15.53;61.92;102381.44;5146964;27;20064;-67
2023/10/06 04:01:09;;;;;;;6.40;3.15;;;;;;;15.52;62.19;102383.31;5144931;27;20039;-66
2023/10/06 04:03:38;;;;;;;6.30;2.60;;;;;;;15.51;62.11;102376.22;5148035;27;20055;-65
2023/10/06 04:06:12;;;;;;;5.53;2.70;;;;;;;15.51;61.94;102370.81;5143523;27;20039;-65
2023/10/06 04:08:44;;;;;;;4.75;2.50;;;;;;;15.50;62.21;102369.16;5142807;27;20070;-67
2023/10/06 04:11:14;;;;;;;5.13;2.20;;;;;;;15.44;62.08;102355.63;5142266;27;20146;-67
2023/10/06 04:13:43;;;;;;;5.38;2.55;;;;;;;15.49;61.96;102369.34;5142390;27;20396;-66
2023/10/06 04:16:14;;;;;;;4.85;2.58;;;;;;;15.46;61.87;102362.50;5144792;27;20153;-66
2023/10/06 04:18:47;;;;;;;6.07;2.50;;;;;;;15.45;62.03;102355.41;5144321;27;20047;-65
2023/10/06 04:21:16;;;;;;;4.72;2.30;;;;;;;15.43;62.12;102345.84;5143260;27;20047;-65
2023/10/06 04:23:44;;;;;;;5.75;2.40;;;;;;;15.44;62.00;102348.34;5145210;27;20537;-67
2023/10/06 04:26:15;;;;;;;5.90;2.50;;;;;;;15.43;61.99;102353.97;5147738;27;20039;-66
2023/10/06 04:28:46;;;;;;;6.93;2.47;;;;;;;15.44;61.86;102369.19;5149300;27;20119;-65
2023/10/06 04:31:16;;;;;;;7.80;3.38;;;;;;;15.42;61.78;102369.41;5143585;27;20043;-65
2023/10/06 04:33:44;;;;;;;4.88;2.60;;;;;;;15.42;61.86;102371.28;5144374;27;20050;-66
2023/10/06 04:36:20;;;;;;;6.97;3.00;;;;;;;15.41;61.80;102380.44;5145077;27;20127;-65
2023/10/06 04:38:48;;;;;;;7.68;2.80;;;;;;;15.39;61.74;102388.78;5148432;27;20043;-68
2023/10/06 04:41:20;;;;;;;8.20;2.65;;;;;;;15.34;61.77;102374.22;5142249;27;20973;-69
2023/10/06 04:43:48;;;;;;;5.22;2.42;;;;;;;15.38;61.81;102370.03;5143363;27;20047;-66
2023/10/06 04:46:17;;;;;;;5.40;2.40;;;;;;;15.36;61.77;102369.44;5145633;27;20089;-66
2023/10/06 04:48:47;;;;;;;6.30;3.05;;;;;;;15.36;61.82;102366.72;5145910;27;20111;-65
2023/10/06 04:51:15;;;;;;;4.75;2.30;;;;;;;15.30;61.61;102357.59;5142344;27;20054;-70
2023/10/06 04:53:45;;;;;;;6.70;2.20;;;;;;;15.35;61.67;102365.88;5145461;27;20047;-67
2023/10/06 04:56:14;;;;;;;11.15;3.08;;;;;;;15.34;61.84;102368.81;5146426;27;20095;-68
2023/10/06 04:58:42;;;;;;;4.40;2.47;;;;;;;15.34;61.67;102366.09;5148679;27;20104;-68
2023/10/06 05:01:11;;;;;;;8.02;2.90;;;;;;;15.32;61.69;102363.63;5145277;27;20047;-68
2023/10/06 05:03:44;;;;;;;5.63;3.17;;;;;;;15.32;61.64;102362.78;5143836;27;20048;-68
2023/10/06 05:06:15;;;;;;;5.88;2.63;;;;;;;15.32;61.64;102347.38;5145999;27;20039;-67
2023/10/06 05:08:46;;;;;;;5.95;2.45;;;;;;;15.26;61.62;102330.09;5147410;27;20074;-68
2023/10/06 05:11:14;;;;;;;4.70;2.33;;;;;;;15.28;61.63;102341.53;5144772;27;20042;-65
2023/10/06 05:13:42;;;;;;;5.28;2.40;;;;;;;15.30;61.52;102338.63;5145847;27;20136;-67
2023/10/06 05:16:11;;;;;;;5.93;2.83;;;;;;;15.28;61.61;102344.25;5146347;27;20054;-65
2023/10/06 05:18:41;;;;;;;5.72;2.30;;;;;;;15.28;61.71;102346.13;5142470;27;20039;-67
2023/10/06 05:21:08;;;;;;;9.77;2.83;;;;;;;15.27;61.59;102341.75;5148295;27;20050;-68
2023/10/06 05:23:36;;;;;;;6.85;2.75;;;;;;;15.27;61.59;102347.19;5145621;27;20046;-66
2023/10/06 05:26:10;;;;;;;6.47;2.45;;;;;;;15.20;61.51;102328.25;5145032;27;20051;-69
2023/10/06 05:28:38;;;;;;;6.03;2.78;;;;;;;15.25;61.59;102331.16;5144835;27;20090;-67
2023/10/06 05:31:08;;;;;;;4.13;2.28;;;;;;;15.27;61.48;102339.06;5148757;27;20043;-68
2023/10/06 05:33:35;;;;;;;6.80;2.70;;;;;;;15.26;61.49;102342.81;4784814;27;9999818;-68
2023/10/06 05:36:10;;;;;;;6.88;2.38;;;;;;;15.24;61.48;102340.31;5137960;27;20046;-68
2023/10/06 05:38:40;;;;;;;5.50;2.92;;;;;;;15.24;61.57;102340.31;5141839;27;20627;-69
2023/10/06 05:41:11;;;;;;;5.20;2.50;;;;;;;15.25;61.62;102344.69;5140835;27;20059;-68
2023/10/06 05:43:40;;;;;;;5.90;2.45;;;;;;;15.25;61.52;102338.44;5144001;27;20046;-68
2023/10/06 05:46:09;;;;;;;4.90;2.55;;;;;;;15.24;61.75;102344.91;5139267;27;20547;-69
2023/10/06 05:48:38;;;;;;;6.60;2.65;;;;;;;15.24;61.59;102345.72;5140781;27;20047;-68
2023/10/06 05:51:08;;;;;;;8.82;2.90;;;;;;;15.23;61.48;102352.19;5139873;27;20073;-68
2023/10/06 05:53:42;;;;;;;4.93;2.33;;;;;;;15.21;61.44;102348.03;5142777;27;20103;-68
2023/10/06 05:56:11;;;;;;;7.13;2.95;;;;;;;15.21;61.68;102350.75;5139759;27;20051;-64
2023/10/06 05:58:40;;;;;;;5.07;2.47;;;;;;;15.19;61.72;102355.56;5140360;27;20276;-64
2023/10/06 06:01:10;;;;;;;8.38;3.22;;;;;;;15.19;61.50;102356.38;5144322;27;20590;-65
2023/10/06 06:03:44;;;;;;;5.22;2.58;;;;;;;15.19;61.54;102353.69;5139460;27;20100;-65
2023/10/06 06:06:15;;;;;;;5.95;2.80;;;;;;;15.18;61.47;102354.72;5139546;27;20051;-65
2023/10/06 06:08:47;;;;;;;9.88;2.65;;;;;;;15.19;61.69;102361.81;5139066;27;20051;-67
2023/10/06 06:11:16;;;;;;;10.05;2.97;;;;;;;15.19;61.50;102353.69;5143483;27;20126;-66
2023/10/06 06:13:45;;;;;;;4.05;2.10;;;;;;;15.18;61.55;102357.44;5140385;27;20119;-69
2023/10/06 06:16:26;;;;;;;8.98;2.75;;;;;;;15.16;61.86;102359.53;5140215;27;20081;-67
2023/10/06 06:18:54;;;;;;;6.45;3.00;;;;;;;15.14;61.75;102356.19;5143662;27;20058;-66
2023/10/06 06:21:24;;;;;;;7.88;3.00;;;;;;;15.14;61.62;102352.66;5143036;27;20057;-68
2023/10/06 06:23:57;;;;;;;5.68;2.50;;;;;;;15.13;61.82;102356.41;5143835;27;20446;-68
2023/10/06 06:26:25;;;;;;;4.35;2.63;;;;;;;15.14;61.56;102360.78;5144039;27;20137;-68
2023/10/06 06:28:53;;;;;;;5.35;2.25;;;;;;;15.15;61.70;102359.75;5142842;27;20055;-68
2023/10/06 06:31:22;;;;;;;6.35;2.63;;;;;;;15.13;61.63;102359.94;5143523;27;20054;-68
2023/10/06 06:33:56;;;;;;;5.85;2.40;;;;;;;15.15;61.56;102351.63;5144900;27;20095;-68
2023/10/06 06:36:25;;;;;;;6.35;2.63;;;;;;;15.17;61.54;102363.06;5137853;27;20051;-67
2023/10/06 06:38:55;;;;;;;6.93;2.75;;;;;;;15.14;61.61;102367.03;5146476;27;20046;-68
2023/10/06 06:41:22;;;;;;;7.18;2.70;;;;;;;15.16;61.46;102369.53;5139972;27;20081;-67
2023/10/06 06:43:57;;;;;;;5.00;2.78;;;;;;;15.07;61.73;102365.41;5142301;27;20049;-66
2023/10/06 06:46:26;;;;;;;5.75;2.58;;;;;;;15.12;61.82;102366.41;5138615;27;20055;-68
2023/10/06 06:48:54;;;;;;;6.88;2.40;;;;;;;15.10;61.64;102367.69;5142036;27;20095;-70
2023/10/06 06:51:25;;;;;;;5.35;2.30;;;;;;;15.13;61.69;102372.66;5144536;27;20055;-69
2023/10/06 06:53:56;;;;;;;6.50;2.63;;;;;;;15.12;61.83;102371.84;5141905;27;20055;-68
2023/10/06 06:56:24;;;;;;;8.35;2.90;;;;;;;15.10;61.92;102373.91;5140307;27;20423;-69
2023/10/06 06:58:52;;;;;;;6.78;2.92;;;;;;;15.10;61.66;102364.97;5140674;27;20047;-68
2023/10/06 07:01:20;;;;;;;7.43;2.25;;;;;;;15.09;61.75;102369.56;5146682;27;20057;-68
2023/10/06 07:03:48;;;;;;;7.63;2.97;;;;;;;15.09;61.81;102372.25;5141896;27;20061;-69
2023/10/06 07:06:16;;;;;;;6.93;2.20;;;;;;;15.10;61.93;102375.81;5142100;27;20035;-68
2023/10/06 07:08:45;;;;;;;4.93;2.38;;;;;;;15.09;61.76;102366.00;5143122;27;20043;-69
2023/10/06 07:11:15;;;;;;;5.82;2.40;;;;;;;15.08;61.81;102365.19;5145909;27;20075;-69
2023/10/06 07:13:45;;;;;;;7.43;2.50;;;;;;;15.08;61.75;102362.47;5145344;27;20047;-68
2023/10/06 07:16:14;;;;;;;5.78;2.30;;;;;;;15.09;61.76;102363.31;5143726;27;20057;-69
2023/10/06 07:18:42;;;;;;;6.10;2.70;;;;;;;15.05;61.84;102359.38;5140190;27;20043;-69
2023/10/06 07:21:11;;;;;;;4.80;2.10;;;;;;;15.08;61.75;102365.19;5144920;27;20062;-69
2023/10/06 07:23:39;;;;;;;7.57;2.70;;;;;;;15.06;61.60;102364.56;5142696;27;20065;-69
2023/10/06 07:26:11;;;;;;;7.00;2.83;;;;;;;15.09;61.87;102358.72;5142771;27;20039;-69
2023/10/06 07:28:40;;;;;;;4.28;2.78;;;;;;;15.11;61.77;102372.03;5141583;27;20080;-70
2023/10/06 07:31:12;;;;;;;5.78;2.10;;;;;;;15.08;61.80;102369.75;5144985;27;20068;-69
2023/10/06 07:33:41;;;;;;;3.78;2.20;;;;;;;15.11;61.65;102363.91;5143013;27;20146;-69
2023/10/06 07:36:13;;;;;;;5.28;2.58;;;;;;;15.08;61.73;102367.06;5143478;27;20107;-68
2023/10/06 07:38:41;;;;;;;5.63;2.40;;;;;;;15.10;61.91;102373.91;5143022;27;20047;-68
2023/10/06 07:41:10;;;;;;;6.85;2.55;;;;;;;15.12;61.88;102365.59;5142372;27;20065;-68
2023/10/06 07:43:39;;;;;;;6.20;2.38;;;;;;;15.14;61.74;102369.75;5139854;27;20043;-68
2023/10/06 07:46:07;;;;;;;4.22;2.30;;;;;;;15.10;61.76;102360.38;5144248;27;20143;-68
2023/10/06 07:48:37;;;;;;;3.67;1.92;;;;;;;15.17;61.84;102371.19;5144552;27;20043;-68
2023/10/06 07:51:08;;;;;;;5.68;2.45;;;;;;;15.17;61.86;102372.03;5146135;27;20046;-69
2023/10/06 07:53:38;;;;;;;7.28;2.70;;;;;;;15.17;61.68;102373.91;5144945;27;20047;-68
2023/10/06 07:56:07;;;;;;;10.50;3.35;;;;;;;15.14;62.72;102386.00;5148407;27;20100;-68
2023/10/06 07:58:37;;;;;;;9.55;2.67;;;;;;;15.13;62.40;102391.63;5143612;27;20118;-76
2023/10/06 08:01:08;;;;;;;5.90;2.67;;;;;;;15.24;62.37;102388.25;5142920;27;20047;-72
2023/10/06 08:03:37;;;;;;;5.45;2.22;;;;;;;15.20;62.63;102395.13;5145372;27;20050;-68
2023/10/06 08:06:06;;;;;;;9.40;2.97;;;;;;;15.21;62.49;102396.78;5145713;27;20074;-68
2023/10/06 08:08:34;;;;;;;7.20;2.80;;;;;;;15.25;62.52;102401.56;5145535;27;20047;-67
2023/10/06 08:11:02;;;;;;;5.88;2.38;;;;;;;15.23;62.78;102402.81;5145896;27;20058;-69
2023/10/06 08:13:31;;;;;;;6.65;2.47;;;;;;;15.19;62.60;102398.88;5142741;27;20518;-67
2023/10/06 08:15:59;;;;;;;6.75;2.97;;;;;;;15.16;62.65;102397.44;5145196;27;20361;-68
2023/10/06 08:18:29;;;;;;;7.63;2.80;;;;;;;15.17;62.53;102387.44;5143818;27;20043;-67
2023/10/06 08:21:00;;;;;;;6.60;2.35;;;;;;;15.15;62.67;102389.53;5145025;27;20039;-67
2023/10/06 08:23:29;;;;;;;7.22;2.50;;;;;;;15.14;62.78;102388.69;5144406;27;20054;-68
2023/10/06 08:25:57;;;;;;;6.72;2.83;;;;;;;15.19;62.83;102391.59;5146588;27;20057;-68
2023/10/06 08:28:31;;;;;;;5.95;2.50;;;;;;;15.19;62.86;102398.88;5145214;27;20039;-67
2023/10/06 08:31:00;;;;;;;6.50;2.75;;;;;;;15.27;62.59;102394.06;5147675;27;20043;-68
2023/10/06 08:33:30;;;;;;;6.72;2.85;;;;;;;15.26;62.81;102400.53;5143884;27;20074;-68
2023/10/06 08:36:00;;;;;;;8.27;2.60;;;;;;;15.28;63.06;102389.47;5145442;27;20056;-68
2023/10/06 08:38:29;;;;;;;9.73;2.95;;;;;;;15.27;62.74;102393.22;5146236;27;20062;-68
2023/10/06 08:41:02;;;;;;;10.40;2.65;;;;;;;15.24;63.24;102396.38;5148505;27;20047;-67
2023/10/06 08:43:32;;;;;;;7.38;3.20;;;;;;;15.26;63.13;102396.97;5143871;27;20052;-67
2023/10/06 08:46:01;;;;;;;7.43;2.97;;;;;;;15.32;63.28;102387.16;5143857;27;20035;-67
2023/10/06 08:48:35;;;;;;;4.68;2.50;;;;;;;15.32;63.20;102396.13;5145528;27;20049;-69
2023/10/06 08:51:07;;;;;;;10.52;3.35;;;;;;;15.33;63.17;102392.38;5143285;27;20483;-68
2023/10/06 08:53:38;;;;;;;5.03;2.30;;;;;;;15.35;63.40;102392.97;5145312;27;20051;-68
2023/10/06 08:56:06;;;;;;;7.72;2.90;;;;;;;15.35;63.34;102401.09;5142800;27;20084;-68
2023/10/06 08:58:35;;;;;;;7.55;2.60;;;;;;;15.36;63.65;102391.94;5147871;27;20457;-68
2023/10/06 09:01:05;;;;;;;8.85;3.15;;;;;;;15.38;63.64;102383.59;5144945;27;20171;-68
2023/10/06 09:03:38;;;;;;;6.20;2.60;;;;;;;15.28;63.88;102375.94;5144093;27;20047;-68
2023/10/06 09:06:08;;;;;;;8.32;2.88;;;;;;;15.40;63.80;102389.63;5141853;27;20086;-68
2023/10/06 09:08:40;;;;;;;7.30;2.15;;;;;;;15.42;63.95;102388.38;5145464;27;20124;-69
2023/10/06 09:11:08;;;;;;;8.45;2.70;;;;;;;15.42;64.07;102384.81;5145104;27;20422;-68
2023/10/06 09:13:36;;;;;;;8.27;3.10;;;;;;;15.50;64.33;102390.00;5143609;27;20119;-69
2023/10/06 09:16:06;;;;;;;8.85;2.60;;;;;;;15.44;64.65;102380.84;5140681;27;20073;-69
2023/10/06 09:18:39;;;;;;;6.18;2.35;;;;;;;15.51;64.53;102387.06;5146815;27;20046;-69
2023/10/06 09:21:13;;;;;;;8.27;2.70;;;;;;;15.53;64.38;102389.56;5142395;27;20058;-68
2023/10/06 09:23:41;;;;;;;5.35;2.47;;;;;;;15.55;64.41;102395.59;5144355;27;20063;-69
2023/10/06 09:26:11;;;;;;;7.03;2.58;;;;;;;15.48;64.37;102386.66;5143603;27;20091;-69
2023/10/06 09:28:51;;;;;;;7.60;2.60;;;;;;;15.66;64.38;102394.91;5143492;27;20081;-69
2023/10/06 09:31:34;;;;;;;5.70;2.22;;;;;;;15.65;64.40;102387.81;5142234;27;20043;-69
2023/10/06 09:34:07;;;;;;;7.70;2.50;;;;;;;15.66;64.35;102367.78;5144622;27;20050;-69
2023/10/06 09:36:36;;;;;;;5.88;2.22;;;;;;;15.71;64.41;102378.81;5142411;27;20051;-69
2023/10/06 09:39:17;;;;;;;9.63;2.27;;;;;;;15.68;64.43;102370.28;5146852;27;20139;-69
2023/10/06 09:41:47;;;;;;;5.93;2.38;;;;;;;15.74;64.67;102372.94;5145576;27;20051;-68
2023/10/06 09:44:19;;;;;;;8.40;2.63;;;;;;;15.65;64.95;102359.88;5143448;27;20099;-69
2023/10/06 09:46:53;;;;;;;10.85;2.90;;;;;;;15.77;65.16;102360.84;5139056;27;20126;-68
2023/10/06 09:49:23;;;;;;;8.32;2.75;;;;;;;15.64;65.14;102348.22;5144145;27;20047;-68
2023/10/06 09:51:52;;;;;;;8.25;2.80;;;;;;;15.79;65.23;102373.13;5143638;27;20047;-68
2023/10/06 09:54:21;;;;;;;10.75;3.28;;;;;;;15.80;65.17;102360.41;5142185;27;20114;-68
2023/10/06 09:56:54;;;;;;;7.90;2.70;;;;;;;15.84;65.50;102361.63;5140826;27;20043;-68
2023/10/06 09:59:25;;;;;;;8.20;2.88;;;;;;;15.78;65.50;102346.25;5147202;27;20047;-68
2023/10/06 10:01:57;;;;;;;6.03;2.90;;;;;;;15.87;65.30;102356.59;5142226;27;20040;-68
2023/10/06 10:04:31;;;;;;;7.22;2.55;;;;;;;15.99;65.47;102356.72;5145608;27;20139;-68
2023/10/06 10:07:01;;;;;;;6.65;2.97;;;;;;;15.99;65.39;102364.84;5145353;27;20461;-68
2023/10/06 10:09:35;;;;;;;5.95;2.92;;;;;;;15.98;65.34;102365.91;5144329;27;20379;-68
2023/10/06 10:12:19;;;;;;;8.68;2.80;;;;;;;16.00;65.42;102360.25;5143538;27;20042;-68
2023/10/06 10:15:03;;;;;;;7.85;2.80;;;;;;;16.00;65.56;102361.09;5142023;27;20046;-69
2023/10/06 10:17:40;;;;;;;12.63;3.03;;;;;;;16.01;65.37;102351.91;5142713;27;20104;-68
2023/10/06 10:20:12;;;;;;;10.13;2.40;;;;;;;16.02;65.36;102364.41;5144900;27;20045;-68
2023/10/06 10:22:41;;;;;;;6.03;2.83;;;;;;;16.03;65.50;102346.25;5140852;27;20039;-69
2023/10/06 10:25:13;;;;;;;7.88;2.70;;;;;;;16.08;65.52;102360.81;5142527;27;20043;-69
2023/10/06 10:28:14;;;;;;;9.05;3.17;;;;;;;16.08;65.24;102359.97;5143193;27;20043;-68
2023/10/06 10:30:56;;;;;;;6.13;2.63;;;;;;;16.07;65.54;102355.59;5138969;27;20080;-67
2023/10/06 10:33:25;;;;;;;10.45;2.45;;;;;;;16.09;65.54;102361.63;5145878;27;20055;-67
2023/10/06 10:36:21;;;;;;;9.23;2.30;;;;;;;16.09;65.57;102357.03;5143601;27;20065;-67
2023/10/06 10:39:04;;;;;;;16.10;3.08;;;;;;;16.14;65.92;102354.50;5142742;27;20084;-67
2023/10/06 10:41:37;;;;;;;8.45;2.75;;;;;;;16.15;65.98;102352.63;5144670;27;20115;-67
2023/10/06 10:44:07;;;;;;;11.23;2.90;;;;;;;16.16;65.81;102352.41;5146875;27;20047;-69
2023/10/06 10:46:53;;;;;;;11.32;2.40;;;;;;;16.16;66.00;102346.13;5143632;27;20054;-68
2023/10/06 10:49:22;;;;;;;15.07;2.58;;;;;;;16.03;66.11;102328.09;5142965;27;20048;-67
2023/10/06 10:51:54;;;;;;;4.55;2.30;;;;;;;16.21;65.99;102333.56;5144492;27;20440;-68
2023/10/06 10:54:23;;;;;;;7.47;2.45;;;;;;;16.18;66.07;102328.59;5145469;27;20042;-67
2023/10/06 10:56:53;;;;;;;6.03;2.03;;;;;;;16.23;65.89;102331.47;5143270;27;20472;-68
2023/10/06 10:59:22;;;;;;;7.05;3.05;;;;;;;16.20;66.11;102329.19;5143580;27;20145;-68
2023/10/06 11:01:53;;;;;;;6.72;2.65;;;;;;;16.26;66.13;102328.31;5143887;27;20061;-68
2023/10/06 11:04:29;;;;;;;5.75;2.33;;;;;;;16.31;66.10;102329.53;5145883;27;20122;-68
2023/10/06 11:07:09;;;;;;;6.13;2.20;;;;;;;16.34;66.09;102323.66;5140243;27;20296;-68
2023/10/06 11:09:40;;;;;;;9.20;2.25;;;;;;;16.34;65.82;102316.34;5142177;27;20357;-68
2023/10/06 11:12:23;;;;;;;7.68;2.70;;;;;;;16.38;65.77;102333.00;5142285;27;20049;-68
2023/10/06 11:14:53;;;;;;;15.52;3.53;;;;;;;16.38;66.47;102339.25;5143993;27;20043;-72
2023/10/06 11:17:23;;;;;;;6.97;2.03;;;;;;;16.47;65.71;102337.06;5144706;27;20043;-72
2023/10/06 11:20:12;;;;;;;8.90;3.05;;;;;;;16.49;65.92;102334.97;5143790;27;20075;-72
2023/10/06 11:22:53;;;;;;;9.10;2.80;;;;;;;16.51;65.92;102335.56;5140580;27;20074;-72
2023/10/06 11:25:26;;;;;;;9.95;2.95;;;;;;;16.55;65.89;102344.94;5144139;27;20047;-72
2023/10/06 11:28:00;;;;;;;9.30;2.65;;;;;;;16.57;65.73;102332.78;5146490;27;20055;-73
2023/10/06 11:30:30;;;;;;;9.55;2.95;;;;;;;16.53;65.91;102319.91;5145784;27;20051;-73
2023/10/06 11:33:00;;;;;;;13.50;3.78;;;;;;;16.62;65.88;102325.84;5146954;27;20081;-76
2023/10/06 11:35:29;;;;;;;7.95;3.17;;;;;;;16.60;65.88;102323.38;5143015;27;20052;-71
2023/10/06 11:37:59;;;;;;;8.23;2.67;;;;;;;16.69;65.98;102330.19;5135013;27;20047;-71
2023/10/06 11:40:30;;;;;;;5.15;2.22;;;;;;;16.68;65.79;102319.56;5144102;27;20484;-71
2023/10/06 11:43:09;;;;;;;8.98;2.63;;;;;;;16.68;65.88;102333.13;5143870;27;20058;-73